sensor_id;sensor_type;location;lat;lon;timestamp;P1;durP1;ratioP1;P2;durP2;ratioP2
30289;SDS011;17105;55.652;37.710;2023-05-16T00:00:32;28.63;;;10.30;;
30289;SDS011;17105;55.652;37.710;2023-05-16T00:01:06;35.35;;;11.48;;
30289;SDS011;17105;55.652;37.710;2023-05-16T00:01:42;35.42;;;10.30;;
30289;SDS011;17105;55.652;37.710;2023-05-16T00:02:16;31.42;;;12.00;;
30289;SDS011;17105;55.652;37.710;2023-05-16T00:02:51;31.33;;;11.68;;
30289;SDS011;17105;55.652;37.710;2023-05-16T00:03:26;26.85;;;11.55;;
30289;SDS011;17105;55.652;37.710;2023-05-16T00:04:01;25.60;;;11.23;;
30289;SDS011;17105;55.652;37.710;2023-05-16T00:04:35;40.58;;;9.93;;
30289;SDS011;17105;55.652;37.710;2023-05-16T00:05:11;34.88;;;10.52;;
30289;SDS011;17105;55.652;37.710;2023-05-16T00:05:46;22.33;;;10.18;;
30289;SDS011;17105;55.652;37.710;2023-05-16T00:06:20;33.08;;;10.10;;
30289;SDS011;17105;55.652;37.710;2023-05-16T00:06:56;26.10;;;9.52;;
30289;SDS011;17105;55.652;37.710;2023-05-16T00:07:29;46.97;;;10.80;;
30289;SDS011;17105;55.652;37.710;2023-05-16T00:08:03;37.92;;;10.98;;
30289;SDS011;17105;55.652;37.710;2023-05-16T00:08:39;55.58;;;11.73;;
30289;SDS011;17105;55.652;37.710;2023-05-16T00:09:13;36.53;;;10.45;;
30289;SDS011;17105;55.652;37.710;2023-05-16T00:09:46;38.33;;;10.52;;
30289;SDS011;17105;55.652;37.710;2023-05-16T00:10:21;28.58;;;10.75;;
30289;SDS011;17105;55.652;37.710;2023-05-16T00:10:56;31.27;;;9.98;;
30289;SDS011;17105;55.652;37.710;2023-05-16T00:11:31;40.72;;;11.18;;
30289;SDS011;17105;55.652;37.710;2023-05-16T00:12:07;30.23;;;10.73;;
30289;SDS011;17105;55.652;37.710;2023-05-16T00:12:40;36.30;;;10.43;;
30289;SDS011;17105;55.652;37.710;2023-05-16T00:13:15;33.60;;;11.13;;
30289;SDS011;17105;55.652;37.710;2023-05-16T00:13:53;37.78;;;10.93;;
30289;SDS011;17105;55.652;37.710;2023-05-16T00:14:27;39.85;;;10.25;;
30289;SDS011;17105;55.652;37.710;2023-05-16T00:15:01;32.10;;;10.88;;
30289;SDS011;17105;55.652;37.710;2023-05-16T00:15:38;34.60;;;10.05;;
30289;SDS011;17105;55.652;37.710;2023-05-16T00:16:11;31.42;;;10.27;;
30289;SDS011;17105;55.652;37.710;2023-05-16T00:16:45;29.95;;;10.75;;
30289;SDS011;17105;55.652;37.710;2023-05-16T00:17:20;39.03;;;11.10;;
30289;SDS011;17105;55.652;37.710;2023-05-16T00:17:55;39.58;;;10.27;;
30289;SDS011;17105;55.652;37.710;2023-05-16T00:18:31;27.02;;;10.50;;
30289;SDS011;17105;55.652;37.710;2023-05-16T00:19:08;37.50;;;11.38;;
30289;SDS011;17105;55.652;37.710;2023-05-16T00:19:42;30.63;;;10.38;;
30289;SDS011;17105;55.652;37.710;2023-05-16T00:20:20;23.33;;;9.75;;
30289;SDS011;17105;55.652;37.710;2023-05-16T00:20:56;32.45;;;10.75;;
30289;SDS011;17105;55.652;37.710;2023-05-16T00:21:31;28.95;;;10.27;;
30289;SDS011;17105;55.652;37.710;2023-05-16T00:22:05;38.45;;;10.55;;
30289;SDS011;17105;55.652;37.710;2023-05-16T00:22:40;31.00;;;10.65;;
30289;SDS011;17105;55.652;37.710;2023-05-16T00:23:14;27.33;;;10.05;;
30289;SDS011;17105;55.652;37.710;2023-05-16T00:23:49;37.55;;;10.70;;
30289;SDS011;17105;55.652;37.710;2023-05-16T00:24:24;28.48;;;11.18;;
30289;SDS011;17105;55.652;37.710;2023-05-16T00:24:59;37.40;;;10.20;;
30289;SDS011;17105;55.652;37.710;2023-05-16T00:25:34;24.25;;;10.00;;
30289;SDS011;17105;55.652;37.710;2023-05-16T00:26:09;37.67;;;10.80;;
30289;SDS011;17105;55.652;37.710;2023-05-16T00:26:45;39.00;;;10.90;;
30289;SDS011;17105;55.652;37.710;2023-05-16T00:27:19;36.38;;;10.23;;
30289;SDS011;17105;55.652;37.710;2023-05-16T00:27:55;30.90;;;10.35;;
30289;SDS011;17105;55.652;37.710;2023-05-16T00:28:28;29.50;;;11.00;;
30289;SDS011;17105;55.652;37.710;2023-05-16T00:29:02;36.25;;;10.85;;
30289;SDS011;17105;55.652;37.710;2023-05-16T00:29:36;24.83;;;9.85;;
30289;SDS011;17105;55.652;37.710;2023-05-16T00:30:09;28.15;;;9.82;;
30289;SDS011;17105;55.652;37.710;2023-05-16T00:30:45;33.03;;;10.57;;
30289;SDS011;17105;55.652;37.710;2023-05-16T00:31:20;32.72;;;10.15;;
30289;SDS011;17105;55.652;37.710;2023-05-16T00:31:55;38.20;;;11.25;;
30289;SDS011;17105;55.652;37.710;2023-05-16T00:32:29;46.10;;;11.23;;
30289;SDS011;17105;55.652;37.710;2023-05-16T00:33:04;35.35;;;10.82;;
30289;SDS011;17105;55.652;37.710;2023-05-16T00:33:39;27.83;;;9.48;;
30289;SDS011;17105;55.652;37.710;2023-05-16T00:34:13;31.42;;;10.40;;
30289;SDS011;17105;55.652;37.710;2023-05-16T00:34:47;41.15;;;10.27;;
30289;SDS011;17105;55.652;37.710;2023-05-16T00:35:22;24.55;;;9.45;;
30289;SDS011;17105;55.652;37.710;2023-05-16T00:35:56;34.95;;;10.13;;
30289;SDS011;17105;55.652;37.710;2023-05-16T00:36:30;33.70;;;10.60;;
30289;SDS011;17105;55.652;37.710;2023-05-16T00:37:06;40.65;;;10.13;;
30289;SDS011;17105;55.652;37.710;2023-05-16T00:37:41;32.88;;;10.48;;
30289;SDS011;17105;55.652;37.710;2023-05-16T00:38:15;34.95;;;9.63;;
30289;SDS011;17105;55.652;37.710;2023-05-16T00:38:50;32.28;;;10.02;;
30289;SDS011;17105;55.652;37.710;2023-05-16T00:39:24;35.15;;;11.23;;
30289;SDS011;17105;55.652;37.710;2023-05-16T00:40:00;33.35;;;9.52;;
30289;SDS011;17105;55.652;37.710;2023-05-16T00:40:37;27.63;;;9.18;;
30289;SDS011;17105;55.652;37.710;2023-05-16T00:41:14;33.50;;;10.07;;
30289;SDS011;17105;55.652;37.710;2023-05-16T00:41:48;32.88;;;9.95;;
30289;SDS011;17105;55.652;37.710;2023-05-16T00:42:24;35.47;;;9.70;;
30289;SDS011;17105;55.652;37.710;2023-05-16T00:42:58;34.75;;;10.43;;
30289;SDS011;17105;55.652;37.710;2023-05-16T00:43:34;39.92;;;11.20;;
30289;SDS011;17105;55.652;37.710;2023-05-16T00:44:08;28.65;;;10.00;;
30289;SDS011;17105;55.652;37.710;2023-05-16T00:44:42;39.80;;;9.93;;
30289;SDS011;17105;55.652;37.710;2023-05-16T00:45:15;35.40;;;10.63;;
30289;SDS011;17105;55.652;37.710;2023-05-16T00:45:53;37.65;;;10.27;;
30289;SDS011;17105;55.652;37.710;2023-05-16T00:46:29;29.92;;;10.50;;
30289;SDS011;17105;55.652;37.710;2023-05-16T00:47:04;31.23;;;9.88;;
30289;SDS011;17105;55.652;37.710;2023-05-16T00:47:39;31.85;;;9.85;;
30289;SDS011;17105;55.652;37.710;2023-05-16T00:48:12;30.00;;;10.25;;
30289;SDS011;17105;55.652;37.710;2023-05-16T00:48:47;32.65;;;10.40;;
30289;SDS011;17105;55.652;37.710;2023-05-16T00:49:25;31.90;;;10.55;;
30289;SDS011;17105;55.652;37.710;2023-05-16T00:49:59;33.20;;;9.65;;
30289;SDS011;17105;55.652;37.710;2023-05-16T00:50:35;37.30;;;11.07;;
30289;SDS011;17105;55.652;37.710;2023-05-16T00:51:10;46.47;;;10.27;;
30289;SDS011;17105;55.652;37.710;2023-05-16T00:51:44;40.05;;;10.30;;
30289;SDS011;17105;55.652;37.710;2023-05-16T00:52:18;36.78;;;9.85;;
30289;SDS011;17105;55.652;37.710;2023-05-16T00:52:54;28.60;;;9.60;;
30289;SDS011;17105;55.652;37.710;2023-05-16T00:53:27;23.75;;;9.90;;
30289;SDS011;17105;55.652;37.710;2023-05-16T00:54:02;29.85;;;9.93;;
30289;SDS011;17105;55.652;37.710;2023-05-16T00:54:38;30.55;;;9.68;;
30289;SDS011;17105;55.652;37.710;2023-05-16T00:55:12;29.67;;;9.93;;
30289;SDS011;17105;55.652;37.710;2023-05-16T00:55:46;37.47;;;9.82;;
30289;SDS011;17105;55.652;37.710;2023-05-16T00:56:19;28.67;;;10.13;;
30289;SDS011;17105;55.652;37.710;2023-05-16T00:56:53;29.98;;;9.15;;
30289;SDS011;17105;55.652;37.710;2023-05-16T00:57:28;26.60;;;9.82;;
30289;SDS011;17105;55.652;37.710;2023-05-16T00:58:03;26.67;;;9.65;;
30289;SDS011;17105;55.652;37.710;2023-05-16T00:58:37;31.60;;;10.07;;
30289;SDS011;17105;55.652;37.710;2023-05-16T00:59:11;26.95;;;9.18;;
30289;SDS011;17105;55.652;37.710;2023-05-16T00:59:44;26.77;;;9.25;;
30289;SDS011;17105;55.652;37.710;2023-05-16T01:00:18;30.50;;;9.60;;
30289;SDS011;17105;55.652;37.710;2023-05-16T01:00:54;30.98;;;9.93;;
30289;SDS011;17105;55.652;37.710;2023-05-16T01:01:28;26.17;;;8.93;;
30289;SDS011;17105;55.652;37.710;2023-05-16T01:02:03;39.53;;;9.88;;
30289;SDS011;17105;55.652;37.710;2023-05-16T01:02:37;40.95;;;9.52;;
30289;SDS011;17105;55.652;37.710;2023-05-16T01:03:11;25.98;;;10.07;;
30289;SDS011;17105;55.652;37.710;2023-05-16T01:03:47;32.28;;;10.63;;
30289;SDS011;17105;55.652;37.710;2023-05-16T01:04:23;41.22;;;10.20;;
30289;SDS011;17105;55.652;37.710;2023-05-16T01:04:57;35.88;;;9.00;;
30289;SDS011;17105;55.652;37.710;2023-05-16T01:05:33;34.72;;;9.48;;
30289;SDS011;17105;55.652;37.710;2023-05-16T01:06:06;32.13;;;9.77;;
30289;SDS011;17105;55.652;37.710;2023-05-16T01:06:40;30.88;;;9.80;;
30289;SDS011;17105;55.652;37.710;2023-05-16T01:07:16;34.58;;;9.35;;
30289;SDS011;17105;55.652;37.710;2023-05-16T01:07:49;29.60;;;9.35;;
30289;SDS011;17105;55.652;37.710;2023-05-16T01:08:22;29.58;;;9.10;;
30289;SDS011;17105;55.652;37.710;2023-05-16T01:08:58;32.17;;;10.43;;
30289;SDS011;17105;55.652;37.710;2023-05-16T01:09:33;27.50;;;9.40;;
30289;SDS011;17105;55.652;37.710;2023-05-16T01:10:08;34.13;;;10.05;;
30289;SDS011;17105;55.652;37.710;2023-05-16T01:10:47;34.35;;;10.93;;
30289;SDS011;17105;55.652;37.710;2023-05-16T01:11:24;32.35;;;10.48;;
30289;SDS011;17105;55.652;37.710;2023-05-16T01:12:01;29.08;;;10.65;;
30289;SDS011;17105;55.652;37.710;2023-05-16T01:12:41;29.90;;;10.60;;
30289;SDS011;17105;55.652;37.710;2023-05-16T01:13:21;41.47;;;12.40;;
30289;SDS011;17105;55.652;37.710;2023-05-16T01:13:59;39.92;;;12.32;;
30289;SDS011;17105;55.652;37.710;2023-05-16T01:14:42;35.33;;;11.30;;
30289;SDS011;17105;55.652;37.710;2023-05-16T01:15:20;32.13;;;11.05;;
30289;SDS011;17105;55.652;37.710;2023-05-16T01:15:59;30.10;;;10.45;;
30289;SDS011;17105;55.652;37.710;2023-05-16T01:16:38;30.83;;;9.25;;
30289;SDS011;17105;55.652;37.710;2023-05-16T01:17:14;31.02;;;9.88;;
30289;SDS011;17105;55.652;37.710;2023-05-16T01:17:52;40.08;;;10.50;;
30289;SDS011;17105;55.652;37.710;2023-05-16T01:18:30;36.85;;;10.18;;
30289;SDS011;17105;55.652;37.710;2023-05-16T01:19:12;33.47;;;10.02;;
30289;SDS011;17105;55.652;37.710;2023-05-16T01:19:59;33.17;;;10.10;;
30289;SDS011;17105;55.652;37.710;2023-05-16T01:20:39;30.52;;;9.73;;
30289;SDS011;17105;55.652;37.710;2023-05-16T01:21:17;27.27;;;8.73;;
30289;SDS011;17105;55.652;37.710;2023-05-16T01:21:55;30.33;;;8.60;;
30289;SDS011;17105;55.652;37.710;2023-05-16T01:22:41;23.80;;;8.32;;
30289;SDS011;17105;55.652;37.710;2023-05-16T01:23:22;25.30;;;8.18;;
30289;SDS011;17105;55.652;37.710;2023-05-16T01:24:02;24.58;;;8.45;;
30289;SDS011;17105;55.652;37.710;2023-05-16T01:24:42;27.25;;;7.93;;
30289;SDS011;17105;55.652;37.710;2023-05-16T01:25:21;23.95;;;7.63;;
30289;SDS011;17105;55.652;37.710;2023-05-16T01:26:09;18.85;;;7.95;;
30289;SDS011;17105;55.652;37.710;2023-05-16T01:26:44;24.23;;;8.38;;
30289;SDS011;17105;55.652;37.710;2023-05-16T01:27:20;20.35;;;8.30;;
30289;SDS011;17105;55.652;37.710;2023-05-16T01:27:55;26.17;;;8.20;;
30289;SDS011;17105;55.652;37.710;2023-05-16T01:28:29;22.20;;;8.32;;
30289;SDS011;17105;55.652;37.710;2023-05-16T01:29:04;28.73;;;7.95;;
30289;SDS011;17105;55.652;37.710;2023-05-16T01:29:39;21.90;;;7.75;;
30289;SDS011;17105;55.652;37.710;2023-05-16T01:30:14;38.95;;;7.95;;
30289;SDS011;17105;55.652;37.710;2023-05-16T01:30:49;20.10;;;7.30;;
30289;SDS011;17105;55.652;37.710;2023-05-16T01:31:23;21.52;;;7.65;;
30289;SDS011;17105;55.652;37.710;2023-05-16T01:31:57;30.33;;;8.10;;
30289;SDS011;17105;55.652;37.710;2023-05-16T01:32:31;24.38;;;7.38;;
30289;SDS011;17105;55.652;37.710;2023-05-16T01:33:06;16.45;;;7.10;;
30289;SDS011;17105;55.652;37.710;2023-05-16T01:33:41;30.35;;;7.60;;
30289;SDS011;17105;55.652;37.710;2023-05-16T01:34:16;30.23;;;7.30;;
30289;SDS011;17105;55.652;37.710;2023-05-16T01:34:50;16.77;;;7.03;;
30289;SDS011;17105;55.652;37.710;2023-05-16T01:35:25;19.33;;;7.90;;
30289;SDS011;17105;55.652;37.710;2023-05-16T01:36:01;23.95;;;7.60;;
30289;SDS011;17105;55.652;37.710;2023-05-16T01:36:38;20.45;;;7.82;;
30289;SDS011;17105;55.652;37.710;2023-05-16T01:37:17;27.40;;;7.95;;
30289;SDS011;17105;55.652;37.710;2023-05-16T01:37:54;16.92;;;6.78;;
30289;SDS011;17105;55.652;37.710;2023-05-16T01:38:35;18.95;;;7.07;;
30289;SDS011;17105;55.652;37.710;2023-05-16T01:39:13;16.48;;;7.50;;
30289;SDS011;17105;55.652;37.710;2023-05-16T01:39:51;19.75;;;7.22;;
30289;SDS011;17105;55.652;37.710;2023-05-16T01:40:29;14.85;;;6.55;;
30289;SDS011;17105;55.652;37.710;2023-05-16T01:41:07;23.75;;;6.50;;
30289;SDS011;17105;55.652;37.710;2023-05-16T01:41:49;21.35;;;7.50;;
30289;SDS011;17105;55.652;37.710;2023-05-16T01:42:26;33.33;;;7.25;;
30289;SDS011;17105;55.652;37.710;2023-05-16T01:43:01;27.35;;;7.90;;
30289;SDS011;17105;55.652;37.710;2023-05-16T01:43:39;26.27;;;7.93;;
30289;SDS011;17105;55.652;37.710;2023-05-16T01:44:17;17.55;;;7.78;;
30289;SDS011;17105;55.652;37.710;2023-05-16T01:44:53;17.90;;;6.80;;
30289;SDS011;17105;55.652;37.710;2023-05-16T01:45:30;27.13;;;7.82;;
30289;SDS011;17105;55.652;37.710;2023-05-16T01:46:08;30.70;;;7.35;;
30289;SDS011;17105;55.652;37.710;2023-05-16T01:46:44;20.98;;;6.68;;
30289;SDS011;17105;55.652;37.710;2023-05-16T01:47:18;19.67;;;6.80;;
30289;SDS011;17105;55.652;37.710;2023-05-16T01:47:56;20.20;;;7.00;;
30289;SDS011;17105;55.652;37.710;2023-05-16T01:48:36;19.70;;;6.68;;
30289;SDS011;17105;55.652;37.710;2023-05-16T01:49:14;21.55;;;6.35;;
30289;SDS011;17105;55.652;37.710;2023-05-16T01:49:52;16.30;;;6.45;;
30289;SDS011;17105;55.652;37.710;2023-05-16T01:50:26;22.55;;;7.75;;
30289;SDS011;17105;55.652;37.710;2023-05-16T01:51:01;18.77;;;7.32;;
30289;SDS011;17105;55.652;37.710;2023-05-16T01:51:37;19.17;;;6.85;;
30289;SDS011;17105;55.652;37.710;2023-05-16T01:52:14;17.95;;;6.35;;
30289;SDS011;17105;55.652;37.710;2023-05-16T01:52:52;19.45;;;6.72;;
30289;SDS011;17105;55.652;37.710;2023-05-16T01:53:28;23.20;;;7.10;;
30289;SDS011;17105;55.652;37.710;2023-05-16T01:54:05;19.83;;;6.70;;
30289;SDS011;17105;55.652;37.710;2023-05-16T01:54:43;18.80;;;7.18;;
30289;SDS011;17105;55.652;37.710;2023-05-16T01:55:20;16.67;;;7.07;;
30289;SDS011;17105;55.652;37.710;2023-05-16T01:55:56;18.40;;;6.65;;
30289;SDS011;17105;55.652;37.710;2023-05-16T01:56:33;16.45;;;6.07;;
30289;SDS011;17105;55.652;37.710;2023-05-16T01:57:10;15.15;;;6.30;;
30289;SDS011;17105;55.652;37.710;2023-05-16T01:57:46;20.70;;;6.90;;
30289;SDS011;17105;55.652;37.710;2023-05-16T01:58:24;21.02;;;6.72;;
30289;SDS011;17105;55.652;37.710;2023-05-16T01:58:58;20.17;;;7.15;;
30289;SDS011;17105;55.652;37.710;2023-05-16T01:59:36;22.80;;;6.53;;
30289;SDS011;17105;55.652;37.710;2023-05-16T02:00:12;21.75;;;6.70;;
30289;SDS011;17105;55.652;37.710;2023-05-16T02:00:46;17.33;;;6.47;;
30289;SDS011;17105;55.652;37.710;2023-05-16T02:01:20;20.83;;;7.00;;
30289;SDS011;17105;55.652;37.710;2023-05-16T02:01:55;25.48;;;6.72;;
30289;SDS011;17105;55.652;37.710;2023-05-16T02:02:29;18.02;;;6.95;;
30289;SDS011;17105;55.652;37.710;2023-05-16T02:03:04;17.77;;;6.60;;
30289;SDS011;17105;55.652;37.710;2023-05-16T02:03:40;20.52;;;6.60;;
30289;SDS011;17105;55.652;37.710;2023-05-16T02:04:15;19.90;;;6.55;;
30289;SDS011;17105;55.652;37.710;2023-05-16T02:04:50;18.90;;;6.70;;
30289;SDS011;17105;55.652;37.710;2023-05-16T02:05:25;18.15;;;6.43;;
30289;SDS011;17105;55.652;37.710;2023-05-16T02:05:59;14.50;;;6.40;;
30289;SDS011;17105;55.652;37.710;2023-05-16T02:06:34;20.35;;;6.47;;
30289;SDS011;17105;55.652;37.710;2023-05-16T02:07:09;22.70;;;6.55;;
30289;SDS011;17105;55.652;37.710;2023-05-16T02:07:43;16.98;;;6.95;;
30289;SDS011;17105;55.652;37.710;2023-05-16T02:08:17;20.73;;;6.88;;
30289;SDS011;17105;55.652;37.710;2023-05-16T02:08:54;16.88;;;7.55;;
30289;SDS011;17105;55.652;37.710;2023-05-16T02:09:29;24.75;;;7.53;;
30289;SDS011;17105;55.652;37.710;2023-05-16T02:10:04;16.83;;;7.03;;
30289;SDS011;17105;55.652;37.710;2023-05-16T02:10:40;27.35;;;7.22;;
30289;SDS011;17105;55.652;37.710;2023-05-16T02:11:14;18.65;;;6.70;;
30289;SDS011;17105;55.652;37.710;2023-05-16T02:11:49;21.02;;;7.75;;
30289;SDS011;17105;55.652;37.710;2023-05-16T02:12:25;19.95;;;7.15;;
30289;SDS011;17105;55.652;37.710;2023-05-16T02:13:00;16.15;;;6.35;;
30289;SDS011;17105;55.652;37.710;2023-05-16T02:13:34;15.88;;;6.57;;
30289;SDS011;17105;55.652;37.710;2023-05-16T02:14:08;23.70;;;7.15;;
30289;SDS011;17105;55.652;37.710;2023-05-16T02:14:43;18.65;;;5.97;;
30289;SDS011;17105;55.652;37.710;2023-05-16T02:15:17;21.50;;;6.53;;
30289;SDS011;17105;55.652;37.710;2023-05-16T02:15:50;23.23;;;6.82;;
30289;SDS011;17105;55.652;37.710;2023-05-16T02:16:26;21.95;;;6.95;;
30289;SDS011;17105;55.652;37.710;2023-05-16T02:17:02;14.95;;;6.93;;
30289;SDS011;17105;55.652;37.710;2023-05-16T02:17:37;28.10;;;6.47;;
30289;SDS011;17105;55.652;37.710;2023-05-16T02:18:11;23.45;;;7.78;;
30289;SDS011;17105;55.652;37.710;2023-05-16T02:18:47;20.58;;;6.88;;
30289;SDS011;17105;55.652;37.710;2023-05-16T02:19:24;21.83;;;6.43;;
30289;SDS011;17105;55.652;37.710;2023-05-16T02:19:58;19.83;;;6.75;;
30289;SDS011;17105;55.652;37.710;2023-05-16T02:20:37;21.08;;;6.65;;
30289;SDS011;17105;55.652;37.710;2023-05-16T02:21:13;21.48;;;7.28;;
30289;SDS011;17105;55.652;37.710;2023-05-16T02:21:47;20.17;;;6.93;;
30289;SDS011;17105;55.652;37.710;2023-05-16T02:22:20;21.85;;;6.93;;
30289;SDS011;17105;55.652;37.710;2023-05-16T02:22:57;24.10;;;7.88;;
30289;SDS011;17105;55.652;37.710;2023-05-16T02:23:31;22.38;;;7.78;;
30289;SDS011;17105;55.652;37.710;2023-05-16T02:24:07;19.33;;;7.18;;
30289;SDS011;17105;55.652;37.710;2023-05-16T02:24:41;18.73;;;6.55;;
30289;SDS011;17105;55.652;37.710;2023-05-16T02:25:16;14.52;;;6.75;;
30289;SDS011;17105;55.652;37.710;2023-05-16T02:25:51;20.42;;;7.43;;
30289;SDS011;17105;55.652;37.710;2023-05-16T02:26:26;24.42;;;7.50;;
30289;SDS011;17105;55.652;37.710;2023-05-16T02:27:00;22.35;;;7.95;;
30289;SDS011;17105;55.652;37.710;2023-05-16T02:27:37;29.77;;;7.20;;
30289;SDS011;17105;55.652;37.710;2023-05-16T02:28:10;17.98;;;7.05;;
30289;SDS011;17105;55.652;37.710;2023-05-16T02:28:44;19.55;;;6.80;;
30289;SDS011;17105;55.652;37.710;2023-05-16T02:29:23;26.75;;;7.32;;
30289;SDS011;17105;55.652;37.710;2023-05-16T02:29:57;20.08;;;6.93;;
30289;SDS011;17105;55.652;37.710;2023-05-16T02:30:31;18.27;;;7.03;;
30289;SDS011;17105;55.652;37.710;2023-05-16T02:31:06;28.38;;;7.15;;
30289;SDS011;17105;55.652;37.710;2023-05-16T02:31:40;18.88;;;6.85;;
30289;SDS011;17105;55.652;37.710;2023-05-16T02:32:13;19.30;;;6.93;;
30289;SDS011;17105;55.652;37.710;2023-05-16T02:32:49;21.98;;;7.88;;
30289;SDS011;17105;55.652;37.710;2023-05-16T02:33:25;20.90;;;6.88;;
30289;SDS011;17105;55.652;37.710;2023-05-16T02:34:00;22.73;;;7.53;;
30289;SDS011;17105;55.652;37.710;2023-05-16T02:34:34;19.77;;;7.28;;
30289;SDS011;17105;55.652;37.710;2023-05-16T02:35:09;23.15;;;7.97;;
30289;SDS011;17105;55.652;37.710;2023-05-16T02:35:43;22.52;;;7.35;;
30289;SDS011;17105;55.652;37.710;2023-05-16T02:36:17;20.33;;;6.95;;
30289;SDS011;17105;55.652;37.710;2023-05-16T02:36:52;21.70;;;7.25;;
30289;SDS011;17105;55.652;37.710;2023-05-16T02:37:26;17.17;;;7.03;;
30289;SDS011;17105;55.652;37.710;2023-05-16T02:38:01;22.38;;;7.07;;
30289;SDS011;17105;55.652;37.710;2023-05-16T02:38:35;18.02;;;7.30;;
30289;SDS011;17105;55.652;37.710;2023-05-16T02:39:09;18.35;;;7.05;;
30289;SDS011;17105;55.652;37.710;2023-05-16T02:39:43;23.90;;;7.82;;
30289;SDS011;17105;55.652;37.710;2023-05-16T02:40:18;24.50;;;7.07;;
30289;SDS011;17105;55.652;37.710;2023-05-16T02:40:52;21.33;;;6.90;;
30289;SDS011;17105;55.652;37.710;2023-05-16T02:41:26;22.73;;;7.45;;
30289;SDS011;17105;55.652;37.710;2023-05-16T02:42:00;21.00;;;7.38;;
30289;SDS011;17105;55.652;37.710;2023-05-16T02:42:36;18.58;;;7.15;;
30289;SDS011;17105;55.652;37.710;2023-05-16T02:43:09;20.08;;;7.10;;
30289;SDS011;17105;55.652;37.710;2023-05-16T02:43:43;20.35;;;7.57;;
30289;SDS011;17105;55.652;37.710;2023-05-16T02:44:18;17.48;;;6.68;;
30289;SDS011;17105;55.652;37.710;2023-05-16T02:44:52;20.10;;;7.18;;
30289;SDS011;17105;55.652;37.710;2023-05-16T02:45:28;17.98;;;7.13;;
30289;SDS011;17105;55.652;37.710;2023-05-16T02:46:03;20.00;;;7.20;;
30289;SDS011;17105;55.652;37.710;2023-05-16T02:46:37;23.42;;;7.07;;
30289;SDS011;17105;55.652;37.710;2023-05-16T02:47:10;23.75;;;7.38;;
30289;SDS011;17105;55.652;37.710;2023-05-16T02:47:45;15.50;;;6.72;;
30289;SDS011;17105;55.652;37.710;2023-05-16T02:48:19;21.80;;;7.03;;
30289;SDS011;17105;55.652;37.710;2023-05-16T02:48:53;23.02;;;7.28;;
30289;SDS011;17105;55.652;37.710;2023-05-16T02:49:28;19.05;;;7.63;;
30289;SDS011;17105;55.652;37.710;2023-05-16T02:50:02;19.38;;;7.93;;
30289;SDS011;17105;55.652;37.710;2023-05-16T02:50:38;17.40;;;7.10;;
30289;SDS011;17105;55.652;37.710;2023-05-16T02:51:13;16.85;;;6.60;;
30289;SDS011;17105;55.652;37.710;2023-05-16T02:51:46;24.88;;;7.80;;
30289;SDS011;17105;55.652;37.710;2023-05-16T02:52:20;17.45;;;6.78;;
30289;SDS011;17105;55.652;37.710;2023-05-16T02:52:54;22.98;;;7.05;;
30289;SDS011;17105;55.652;37.710;2023-05-16T02:53:28;18.42;;;7.28;;
30289;SDS011;17105;55.652;37.710;2023-05-16T02:54:01;22.15;;;6.68;;
30289;SDS011;17105;55.652;37.710;2023-05-16T02:54:37;22.70;;;7.68;;
30289;SDS011;17105;55.652;37.710;2023-05-16T02:55:11;17.10;;;6.47;;
30289;SDS011;17105;55.652;37.710;2023-05-16T02:56:05;20.42;;;7.43;;
30289;SDS011;17105;55.652;37.710;2023-05-16T02:56:44;18.77;;;7.53;;
30289;SDS011;17105;55.652;37.710;2023-05-16T02:57:18;16.48;;;7.03;;
30289;SDS011;17105;55.652;37.710;2023-05-16T02:57:55;20.30;;;7.07;;
30289;SDS011;17105;55.652;37.710;2023-05-16T02:58:29;14.98;;;6.90;;
30289;SDS011;17105;55.652;37.710;2023-05-16T02:59:04;27.17;;;6.55;;
30289;SDS011;17105;55.652;37.710;2023-05-16T02:59:38;25.45;;;6.70;;
30289;SDS011;17105;55.652;37.710;2023-05-16T03:00:13;23.63;;;7.30;;
30289;SDS011;17105;55.652;37.710;2023-05-16T03:00:50;22.50;;;6.35;;
30289;SDS011;17105;55.652;37.710;2023-05-16T03:01:25;19.17;;;7.15;;
30289;SDS011;17105;55.652;37.710;2023-05-16T03:01:59;20.70;;;7.70;;
30289;SDS011;17105;55.652;37.710;2023-05-16T03:02:34;14.85;;;6.47;;
30289;SDS011;17105;55.652;37.710;2023-05-16T03:03:11;17.73;;;6.45;;
30289;SDS011;17105;55.652;37.710;2023-05-16T03:03:46;20.75;;;6.75;;
30289;SDS011;17105;55.652;37.710;2023-05-16T03:04:22;26.60;;;7.50;;
30289;SDS011;17105;55.652;37.710;2023-05-16T03:04:58;22.20;;;7.65;;
30289;SDS011;17105;55.652;37.710;2023-05-16T03:05:34;18.15;;;6.90;;
30289;SDS011;17105;55.652;37.710;2023-05-16T03:06:10;21.65;;;6.97;;
30289;SDS011;17105;55.652;37.710;2023-05-16T03:06:44;22.23;;;6.85;;
30289;SDS011;17105;55.652;37.710;2023-05-16T03:07:18;26.73;;;7.63;;
30289;SDS011;17105;55.652;37.710;2023-05-16T03:07:52;21.52;;;7.13;;
30289;SDS011;17105;55.652;37.710;2023-05-16T03:08:26;19.95;;;7.15;;
30289;SDS011;17105;55.652;37.710;2023-05-16T03:09:00;19.70;;;7.10;;
30289;SDS011;17105;55.652;37.710;2023-05-16T03:09:34;26.75;;;7.13;;
30289;SDS011;17105;55.652;37.710;2023-05-16T03:10:09;25.17;;;7.47;;
30289;SDS011;17105;55.652;37.710;2023-05-16T03:10:43;21.05;;;6.72;;
30289;SDS011;17105;55.652;37.710;2023-05-16T03:11:17;19.27;;;6.97;;
30289;SDS011;17105;55.652;37.710;2023-05-16T03:11:55;22.88;;;7.20;;
30289;SDS011;17105;55.652;37.710;2023-05-16T03:12:29;20.80;;;7.07;;
30289;SDS011;17105;55.652;37.710;2023-05-16T03:13:05;15.93;;;6.88;;
30289;SDS011;17105;55.652;37.710;2023-05-16T03:13:39;13.45;;;6.00;;
30289;SDS011;17105;55.652;37.710;2023-05-16T03:14:15;15.43;;;7.10;;
30289;SDS011;17105;55.652;37.710;2023-05-16T03:14:50;22.08;;;6.95;;
30289;SDS011;17105;55.652;37.710;2023-05-16T03:15:23;19.98;;;6.80;;
30289;SDS011;17105;55.652;37.710;2023-05-16T03:16:01;18.02;;;7.35;;
30289;SDS011;17105;55.652;37.710;2023-05-16T03:16:35;17.73;;;6.60;;
30289;SDS011;17105;55.652;37.710;2023-05-16T03:17:10;23.40;;;7.53;;
30289;SDS011;17105;55.652;37.710;2023-05-16T03:17:44;18.30;;;7.05;;
30289;SDS011;17105;55.652;37.710;2023-05-16T03:18:18;21.05;;;6.93;;
30289;SDS011;17105;55.652;37.710;2023-05-16T03:18:52;18.38;;;7.43;;
30289;SDS011;17105;55.652;37.710;2023-05-16T03:19:27;26.23;;;7.75;;
30289;SDS011;17105;55.652;37.710;2023-05-16T03:20:00;22.20;;;6.90;;
30289;SDS011;17105;55.652;37.710;2023-05-16T03:20:33;19.35;;;7.07;;
30289;SDS011;17105;55.652;37.710;2023-05-16T03:21:09;28.02;;;7.97;;
30289;SDS011;17105;55.652;37.710;2023-05-16T03:21:42;27.20;;;7.57;;
30289;SDS011;17105;55.652;37.710;2023-05-16T03:22:17;23.33;;;7.18;;
30289;SDS011;17105;55.652;37.710;2023-05-16T03:22:51;19.73;;;6.43;;
30289;SDS011;17105;55.652;37.710;2023-05-16T03:23:25;19.63;;;7.32;;
30289;SDS011;17105;55.652;37.710;2023-05-16T03:24:01;25.23;;;7.25;;
30289;SDS011;17105;55.652;37.710;2023-05-16T03:24:35;27.48;;;7.03;;
30289;SDS011;17105;55.652;37.710;2023-05-16T03:25:09;28.23;;;7.53;;
30289;SDS011;17105;55.652;37.710;2023-05-16T03:25:45;25.17;;;6.88;;
30289;SDS011;17105;55.652;37.710;2023-05-16T03:26:24;23.38;;;7.35;;
30289;SDS011;17105;55.652;37.710;2023-05-16T03:26:59;29.55;;;7.20;;